Data for 01/14/2018

Time Sea-Level Adjusted Pressure Absolute Pressure Temperature Relative Humidity Dew Point   
(mb) (inHg) (mb) (inHg) (C) (F) (%) (C) (F)
00:05 1029 30.39 859 25.37 1.4 34.5 68 -3.8 25.1
00:10 1029 30.39 859 25.37 1.1 34 69 -3.9 25
00:15 1029 30.39 859 25.37 1 33.8 71 -3.8 25.2
00:20 1029 30.39 859 25.37 1.2 34.2 70 -3.6 25.6
00:25 1029 30.39 859 25.37 1 33.7 70 -3.8 25.1
00:30 1029 30.39 858 25.34 0.9 33.5 72 -3.7 25.3
00:35 1029 30.39 859 25.37 0.7 33.2 72 -3.8 25.2
00:40 1029 30.39 858 25.34 0.7 33.2 73 -3.6 25.6
00:45 1029 30.39 858 25.34 0.5 32.8 74 -3.6 25.6
00:50 1029 30.39 858 25.34 0.5 32.9 73 -3.7 25.3
00:55 1029 30.39 858 25.34 0.4 32.8 75 -3.6 25.6
01:00 1029 30.39 858 25.34 0.3 32.5 75 -3.7 25.3
01:05 1029 30.39 858 25.34 0.2 32.3 73 -4 24.8
01:10 1029 30.39 858 25.34 0.2 32.4 74 -3.9 25.1
01:15 1029 30.39 858 25.34 -0 31.9 75 -3.9 24.9
01:20 1029 30.39 858 25.34 -0.1 31.9 76 -3.7 25.3
01:25 1029 30.39 858 25.34 0 32 75 -3.9 24.9
01:30 1029 30.39 858 25.34 -0.1 31.8 75 -4.1 24.7
01:35 1029 30.39 858 25.34 0 32 74 -4.1 24.7
01:40 1029 30.39 858 25.34 0 32.1 75 -3.9 24.9
01:45 1029 30.39 858 25.34 0.3 32.5 74 -3.9 25
01:50 1029 30.39 858 25.34 0.1 32.2 75 -3.7 25.3
01:55 1029 30.39 858 25.34 0 32 75 -4 24.9
02:00 1029 30.39 858 25.34 0 32.1 74 -4.1 24.6
02:05 1029 30.39 858 25.34 -0.2 31.7 74 -4.2 24.4
02:10 1029 30.39 858 25.34 -0.2 31.6 74 -4.3 24.3
02:15 1029 30.39 858 25.34 -0.2 31.7 73 -4.4 24.1
02:20 1029 30.39 858 25.34 -0.1 31.9 74 -4.2 24.4
02:25 1029 30.39 858 25.34 0.1 32.1 74 -4 24.9
02:30 1029 30.39 858 25.34 -0.2 31.6 75 -4 24.7
02:35 1029 30.39 858 25.34 -0.2 31.7 73 -4.5 23.9
02:40 1029 30.39 858 25.34 -0.3 31.5 73 -4.5 23.9
02:45 1029 30.39 858 25.34 -0.2 31.6 73 -4.5 23.9
02:50 1029 30.39 858 25.34 -0.5 31.1 74 -4.7 23.6
02:55 1029 30.39 858 25.34 -0.6 30.9 74 -4.7 23.6
03:00 1029 30.39 858 25.34 -0.7 30.7 76 -4.5 23.9
03:05 1029 30.39 858 25.34 -0.5 31.1 76 -4.3 24.3
03:10 1029 30.39 858 25.34 -0.2 31.7 73 -4.4 24.1
03:15 1029 30.39 858 25.34 0.1 32.2 71 -4.5 23.9
03:20 1029 30.39 858 25.34 -0.2 31.7 73 -4.4 24.1
03:25 1029 30.39 858 25.34 -0.3 31.4 73 -4.6 23.7
03:30 1029 30.39 858 25.34 -0.2 31.6 72 -4.6 23.7
03:35 1029 30.39 858 25.34 -0.2 31.6 73 -4.5 23.8
03:40 1029 30.39 858 25.34 -0.4 31.2 74 -4.6 23.8
03:45 1029 30.39 858 25.34 -0.5 31.1 73 -4.8 23.3
03:50 1029 30.39 858 25.34 -0.8 30.5 74 -4.8 23.3
03:55 1029 30.39 858 25.34 -0.9 30.3 75 -4.8 23.3
04:00 1029 30.39 858 25.34 -1 30.1 75 -4.9 23.3
04:05 1029 30.39 858 25.34 -1.2 29.8 76 -4.9 23.2
04:10 1029 30.39 858 25.34 -1.4 29.4 78 -4.9 23.2
04:15 1029 30.39 858 25.34 -1.5 29.3 77 -4.9 23.1
04:20 1029 30.39 858 25.34 -1.4 29.5 76 -5.1 22.8
04:25 1029 30.39 858 25.34 -1.2 29.8 76 -4.9 23.1
04:30 1029 30.39 858 25.34 -1.2 29.9 75 -5.1 22.8
04:35 1029 30.39 858 25.34 -1.3 29.6 75 -5.3 22.5
04:40 1029 30.39 858 25.34 -1.5 29.3 76 -5.2 22.7
04:45 1029 30.39 858 25.34 -1.6 29.2 74 -5.6 21.9
04:50 1029 30.39 858 25.34 -1.7 28.9 75 -5.7 21.8
04:55 1029 30.39 858 25.34 -1.9 28.6 75 -5.7 21.8
05:00 1029 30.39 858 25.34 -2 28.5 76 -5.7 21.7
05:05 1029 30.39 858 25.34 -2 28.4 76 -5.7 21.8
05:10 1029 30.39 858 25.34 -2.1 28.2 77 -5.7 21.8
05:15 1029 30.39 858 25.34 -2.3 27.9 78 -5.7 21.8
05:20 1029 30.39 858 25.34 -2.3 27.9 77 -5.8 21.6
05:25 1029 30.39 858 25.34 -2.6 27.3 76 -6.2 20.9
05:30 1029 30.39 858 25.34 -2.5 27.6 76 -6.2 20.9
05:35 1029 30.39 858 25.34 -2.5 27.6 75 -6.3 20.6
05:40 1029 30.39 858 25.34 -2.6 27.3 76 -6.3 20.6
05:45 1029 30.39 858 25.34 -2.7 27.2 75 -6.5 20.3
05:50 1029 30.39 858 25.34 -2.6 27.3 75 -6.4 20.4
05:55 1029 30.39 858 25.34 -2.7 27.1 76 -6.4 20.4
06:00 1029 30.39 858 25.34 -3 26.6 76 -6.6 20.1
06:05 1029 30.39 858 25.34 -3.2 26.3 78 -6.5 20.3
06:10 1029 30.39 858 25.34 -3.3 26.1 79 -6.5 20.3
06:15 1029 30.39 858 25.34 -3.4 25.9 79 -6.6 20.1
06:20 1029 30.39 858 25.34 -3.4 25.9 82 -6.1 21.1
06:25 1029 30.39 858 25.34 -3.3 26.1 82 -6 21.3
06:30 1029 30.39 858 25.34 -2.9 26.7 80 -5.9 21.5
06:35 1029 30.39 858 25.34 -2.5 27.4 78 -5.8 21.6
06:40 1029 30.39 858 25.34 -2.5 27.5 78 -5.8 21.6
06:45 1029 30.39 858 25.34 -2.9 26.9 80 -5.9 21.4
06:50 1029 30.39 858 25.34 -3.2 26.2 82 -5.9 21.4
06:55 1029 30.39 858 25.34 -2.9 26.7 80 -5.9 21.5
07:00 1029 30.39 858 25.34 -2.9 26.8 81 -5.8 21.6
07:05 1029 30.39 858 25.34 -3 26.6 81 -5.8 21.5
07:10 1029 30.39 858 25.34 -3 26.6 81 -5.8 21.6
07:15 1029 30.39 858 25.34 -2.5 27.5 78 -5.8 21.6
07:20 1029 30.39 858 25.34 -2.1 28.2 75 -6 21.2
07:25 1029 30.39 858 25.34 -2.4 27.8 78 -5.8 21.6
07:30 1029 30.39 858 25.34 -2.9 26.7 78 -6.2 20.8
07:35 1029 30.39 858 25.34 -3.2 26.2 79 -6.4 20.4
07:40 1029 30.39 858 25.34 -3.2 26.3 78 -6.5 20.4
07:45 1029 30.39 858 25.34 -2.3 27.9 73 -6.5 20.3
07:50 1029 30.39 858 25.34 -2.4 27.7 74 -6.4 20.5
07:55 1029 30.39 858 25.34 -2.7 27.1 75 -6.5 20.2
08:00 1029 30.39 858 25.34 -2.8 27 75 -6.6 20.1
08:05 1029 30.39 858 25.34 -2.5 27.5 74 -6.5 20.3
08:10 1029 30.39 858 25.34 -2.9 26.8 77 -6.3 20.6
08:15 1029 30.39 858 25.34 -3.1 26.4 79 -6.3 20.7
08:20 1029 30.39 858 25.34 -3.1 26.4 80 -6 21.1
08:25 1029 30.39 858 25.34 -2.6 27.4 77 -6.1 21
08:30 1029 30.39 858 25.34 -2.2 28 73 -6.4 20.5
08:35 1029 30.39 858 25.34 -2.4 27.8 74 -6.4 20.4
08:40 1029 30.39 858 25.34 -2.5 27.5 76 -6.2 20.8
08:45 1029 30.39 858 25.34 -2.4 27.7 74 -6.4 20.5
08:50 1029 30.39 858 25.34 -2.2 28 73 -6.4 20.4
08:55 1029 30.39 858 25.34 -2.1 28.2 72 -6.4 20.4
09:00 1029 30.39 859 25.37 -1.6 29.1 70 -6.4 20.6
09:05 1029 30.39 859 25.37 -1.3 29.7 69 -6.3 20.6
09:10 1030 30.42 859 25.37 -0.8 30.6 66 -6.3 20.6
09:15 1030 30.42 859 25.37 -0.5 31.2 66 -6.1 21
09:20 1030 30.42 859 25.37 -0.1 31.8 65 -5.9 21.4
09:25 1030 30.42 859 25.37 -0.4 31.3 66 -6 21.3
09:30 1030 30.42 859 25.37 -0.8 30.5 68 -6 21.1
09:35 1030 30.42 859 25.37 -1 30.3 67 -6.2 20.8
09:40 1030 30.42 859 25.37 -0.8 30.6 67 -6.2 20.9
09:45 1030 30.42 859 25.37 -0.5 31.1 65 -6.3 20.7
09:50 1030 30.42 859 25.37 -0.3 31.5 64 -6.3 20.6
09:55 1030 30.42 859 25.37 -0.3 31.5 64 -6.3 20.6
10:00 1030 30.42 859 25.37 -0.6 30.9 65 -6.3 20.6
10:05 1030 30.42 859 25.37 -0.1 31.9 64 -6 21.2
10:10 1030 30.42 859 25.37 0.1 32.1 63 -6.2 20.8
10:15 1030 30.42 859 25.37 0.3 32.5 63 -6 21.1
10:20 1030 30.42 859 25.37 0.5 32.9 62 -6.1 21.1
10:25 1029 30.39 859 25.37 0.3 32.5 62 -6.2 20.9
10:30 1029 30.39 859 25.37 0 32 62 -6.4 20.5
10:35 1030 30.42 859 25.37 0.5 32.9 61 -6.2 20.9
10:40 1029 30.39 859 25.37 1 33.9 58 -6.3 20.7
10:45 1029 30.39 859 25.37 1.8 35.2 56 -6 21.2
10:50 1029 30.39 858 25.34 1.9 35.4 56 -6 21.2
10:55 1029 30.39 858 25.34 2.1 35.7 55 -6 21.2
11:00 1029 30.39 858 25.34 2.7 36.8 54 -5.8 21.5
11:05 1029 30.39 858 25.34 3.3 38 51 -5.9 21.4
11:10 1029 30.39 858 25.34 3.6 38.4 51 -5.5 22.1
11:15 1029 30.39 858 25.34 4 39.1 50 -5.5 22.1
11:20 1029 30.39 858 25.34 4.5 40.2 48 -5.6 21.9
11:25 1029 30.39 858 25.34 5.2 41.3 45 -5.8 21.6
11:30 1029 30.39 858 25.34 5.5 41.9 45 -5.6 21.9
11:35 1029 30.39 858 25.34 5.2 41.3 49 -4.8 23.4
11:40 1029 30.39 858 25.34 3.2 37.8 55 -4.9 23.1
11:45 1029 30.39 858 25.34 2.5 36.5 56 -5.5 22.1
11:50 1029 30.39 858 25.34 3.5 38.2 52 -5.6 22
11:55 1029 30.39 858 25.34 4 39.3 51 -5.3 22.5
12:00 1029 30.39 858 25.34 4.2 39.6 50 -5.4 22.2
12:05 1029 30.39 858 25.34 4.5 40.1 49 -5.4 22.3
12:10 1029 30.39 858 25.34 4.5 40 50 -5.2 22.7
12:15 1029 30.39 858 25.34 4.4 39.9 49 -5.3 22.5
12:20 1029 30.39 858 25.34 4.3 39.8 50 -5.3 22.4
12:25 1029 30.39 858 25.34 4.4 40 48 -5.7 21.8
12:30 1029 30.39 858 25.34 4.8 40.6 47 -5.5 22.1
12:35 1028 30.36 858 25.34 5.1 41.2 47 -5.3 22.5
12:40 1028 30.36 858 25.34 4.8 40.6 48 -5.3 22.4
12:45 1028 30.36 858 25.34 4.4 40 48 -5.5 22.1
12:50 1028 30.36 857 25.31 4.7 40.5 48 -5.5 22.1
12:55 1028 30.36 857 25.31 5.1 41.1 47 -5.4 22.2
13:00 1028 30.36 857 25.31 4.9 40.8 48 -5.3 22.4
13:05 1028 30.36 857 25.31 4.7 40.4 50 -4.9 23.2
13:10 1028 30.36 857 25.31 4.1 39.4 49 -5.6 21.9
13:15 1028 30.36 857 25.31 4.5 40.1 48 -5.6 21.9
13:20 1028 30.36 857 25.31 5.1 41.1 47 -5.4 22.2
13:25 1028 30.36 857 25.31 5.1 41.2 50 -4.6 23.8
13:30 1028 30.36 857 25.31 4.5 40 50 -5.2 22.7
13:35 1028 30.36 857 25.31 4.1 39.4 52 -4.7 23.5
13:40 1028 30.36 857 25.31 4 39.3 52 -4.9 23.2
13:45 1028 30.36 857 25.31 4.2 39.5 52 -4.8 23.4
13:50 1028 30.36 857 25.31 4.1 39.3 52 -4.8 23.3
13:55 1028 30.36 857 25.31 4.1 39.4 53 -4.7 23.5
14:00 1028 30.36 857 25.31 4 39.3 53 -4.7 23.5
14:05 1028 30.36 857 25.31 4 39.3 53 -4.6 23.8
14:10 1028 30.36 857 25.31 4 39.2 53 -4.7 23.6
14:15 1028 30.36 857 25.31 3.8 38.9 54 -4.6 23.6
14:20 1028 30.36 857 25.31 3.4 38.1 57 -4.3 24.2
14:25 1028 30.36 857 25.31 3.5 38.4 57 -4.2 24.4
14:30 1028 30.36 857 25.31 3.7 38.7 55 -4.5 23.8
14:35 1028 30.36 857 25.31 3.7 38.7 55 -4.5 23.9
14:40 1028 30.36 857 25.31 3.6 38.5 55 -4.6 23.7
14:45 1028 30.36 857 25.31 3.9 38.9 54 -4.5 23.9
14:50 1028 30.36 857 25.31 4 39.2 55 -4.1 24.6
14:55 1028 30.36 857 25.31 3.9 38.9 54 -4.5 23.8
15:00 1028 30.36 857 25.31 4.2 39.6 52 -4.6 23.7
15:05 1028 30.36 857 25.31 4.2 39.6 53 -4.4 24.1
15:10 1028 30.36 857 25.31 3.9 39 55 -4.3 24.2
15:15 1028 30.36 857 25.31 3.5 38.3 57 -4.2 24.5
15:20 1028 30.36 857 25.31 3.7 38.7 57 -4.1 24.6
15:25 1028 30.36 857 25.31 3.9 39 56 -4 24.8
15:30 1027 30.33 857 25.31 4 39.2 56 -3.9 24.9
15:35 1027 30.33 857 25.31 3.9 39 57 -4 24.8
15:40 1028 30.36 857 25.31 3.7 38.6 56 -4.3 24.2
15:45 1028 30.36 857 25.31 3.7 38.6 57 -4 24.8
15:50 1028 30.36 857 25.31 3.4 38.2 60 -3.7 25.3
15:55 1028 30.36 857 25.31 3.1 37.6 60 -3.9 25.1
16:00 1028 30.36 857 25.31 3.1 37.6 60 -3.8 25.1
16:05 1028 30.36 857 25.31 3.3 37.9 60 -3.7 25.4
16:10 1028 30.36 857 25.31 3.6 38.5 59 -3.6 25.5
16:15 1028 30.36 857 25.31 3.7 38.7 59 -3.6 25.6
16:20 1028 30.36 857 25.31 3.5 38.3 60 -3.5 25.8
16:25 1028 30.36 857 25.31 3.4 38 60 -3.8 25.2
16:30 1028 30.36 857 25.31 3.1 37.7 61 -3.7 25.3
16:35 1027 30.33 857 25.31 2.9 37.2 61 -3.9 25
16:40 1027 30.33 856 25.28 2.9 37.1 61 -3.9 24.9
16:45 1027 30.33 856 25.28 2.9 37.3 60 -4.1 24.6
16:50 1027 30.33 856 25.28 2.8 37.1 58 -4.6 23.8
16:55 1027 30.33 856 25.28 2.9 37.2 62 -3.8 25.2
17:00 1027 30.33 856 25.28 2.6 36.6 63 -3.9 25.1
17:05 1027 30.33 856 25.28 2.1 35.9 65 -3.8 25.1
17:10 1027 30.33 856 25.28 1.8 35.3 66 -3.8 25.2
17:15 1027 30.33 856 25.28 1.6 34.8 66 -4 24.8
17:20 1027 30.33 856 25.28 1.4 34.5 66 -4.3 24.3
17:25 1027 30.33 856 25.28 1.3 34.3 66 -4.4 24.2
17:30 1027 30.33 856 25.28 1.3 34.3 66 -4.4 24
17:35 1027 30.33 856 25.28 1.5 34.6 64 -4.6 23.8
17:40 1027 30.33 856 25.28 1.5 34.8 64 -4.5 23.9
17:45 1027 30.33 856 25.28 1.7 35 64 -4.5 23.9
17:50 1027 30.33 856 25.28 1.6 35 65 -4.3 24.2
17:55 1027 30.33 857 25.31 1.6 34.8 66 -4.1 24.6
18:00 1027 30.33 857 25.31 1.2 34.2 67 -4.2 24.4
18:05 1027 30.33 857 25.31 0.6 33.1 67 -4.7 23.5
18:10 1027 30.33 857 25.31 0.7 33.3 65 -5.2 22.7
18:15 1027 30.33 857 25.31 1.2 34.2 65 -4.7 23.5
18:20 1027 30.33 857 25.31 1.1 34 67 -4.2 24.4
18:25 1028 30.36 857 25.31 0.4 32.7 71 -4.2 24.4
18:30 1027 30.33 857 25.31 0.2 32.4 70 -4.6 23.7
18:35 1027 30.33 857 25.31 0.5 32.9 70 -4.4 24.1
18:40 1027 30.33 857 25.31 0.8 33.4 71 -3.9 25
18:45 1027 30.33 857 25.31 0.8 33.5 70 -4 24.8
18:50 1027 30.33 857 25.31 0.9 33.6 69 -4.1 24.7
18:55 1027 30.33 857 25.31 0.9 33.7 68 -4.2 24.4
19:00 1027 30.33 857 25.31 1.1 33.9 68 -4.2 24.5
19:05 1027 30.33 857 25.31 1 33.9 69 -4 24.7
19:10 1028 30.36 857 25.31 0.9 33.6 69 -4.2 24.5
19:15 1028 30.36 857 25.31 0.5 33 70 -4.2 24.4
19:20 1028 30.36 857 25.31 0.4 32.8 73 -3.9 25
19:25 1028 30.36 857 25.31 0.9 33.6 71 -3.7 25.3
19:30 1028 30.36 857 25.31 0.9 33.7 72 -3.6 25.6
19:35 1028 30.36 857 25.31 0.6 33.1 70 -4.2 24.4
19:40 1028 30.36 857 25.31 0.5 33 69 -4.5 24
19:45 1028 30.36 857 25.31 0.3 32.6 70 -4.4 24
19:50 1028 30.36 857 25.31 0.2 32.4 70 -4.7 23.6
19:55 1028 30.36 857 25.31 0.3 32.6 70 -4.6 23.7
20:00 1028 30.36 857 25.31 0.2 32.3 70 -4.6 23.7
20:05 1028 30.36 857 25.31 0.2 32.4 69 -4.8 23.3
20:10 1028 30.36 857 25.31 0.2 32.4 69 -4.8 23.4
20:15 1028 30.36 857 25.31 0.2 32.4 70 -4.6 23.7
20:20 1028 30.36 857 25.31 0.2 32.4 70 -4.6 23.7
20:25 1028 30.36 857 25.31 0.2 32.4 70 -4.6 23.8
20:30 1028 30.36 857 25.31 0.3 32.5 70 -4.6 23.8
20:35 1028 30.36 857 25.31 0.4 32.7 70 -4.5 23.8
20:40 1028 30.36 857 25.31 0.6 33.2 69 -4.5 23.9
20:45 1028 30.36 857 25.31 0.7 33.3 69 -4.3 24.2
20:50 1028 30.36 857 25.31 0.7 33.3 69 -4.3 24.2
20:55 1028 30.36 857 25.31 0.8 33.4 69 -4.3 24.2
21:00 1028 30.36 857 25.31 0.8 33.5 69 -4.2 24.4
21:05 1028 30.36 857 25.31 1 33.8 70 -4 24.9
21:10 1028 30.36 857 25.31 0.7 33.2 72 -3.9 25
21:15 1028 30.36 857 25.31 -0.5 31.1 75 -4.4 24.1
21:20 1028 30.36 857 25.31 -0.7 30.7 75 -4.6 23.8
21:25 1028 30.36 857 25.31 -0.7 30.7 75 -4.6 23.8
21:30 1028 30.36 857 25.31 -0.5 31 73 -4.8 23.4
21:35 1028 30.36 857 25.31 -0 32 72 -4.5 23.9
21:40 1028 30.36 857 25.31 0.2 32.3 73 -4.2 24.4
21:45 1028 30.36 857 25.31 0.2 32.3 73 -4.1 24.5
21:50 1028 30.36 858 25.34 0.2 32.3 72 -4.3 24.3
21:55 1028 30.36 858 25.34 0 32 72 -4.4 24
22:00 1028 30.36 858 25.34 0.2 32.3 72 -4.3 24.2
22:05 1028 30.36 857 25.31 0.3 32.5 71 -4.4 24.1
22:10 1028 30.36 857 25.31 0.3 32.5 72 -4.2 24.4
22:15 1028 30.36 858 25.34 0.1 32.1 74 -4.1 24.7
22:20 1028 30.36 858 25.34 -0.4 31.3 75 -4.3 24.3
22:25 1028 30.36 858 25.34 -0.2 31.6 74 -4.4 24.1
22:30 1029 30.39 858 25.34 0 32 73 -4.3 24.3
22:35 1029 30.39 858 25.34 0 32.1 74 -4.1 24.7
22:40 1029 30.39 858 25.34 -0.1 31.9 75 -3.9 24.9
22:45 1029 30.39 858 25.34 -0.2 31.7 76 -3.8 25.1
22:50 1029 30.39 858 25.34 -0.3 31.4 77 -3.8 25.1
22:55 1029 30.39 858 25.34 -0.4 31.2 78 -3.9 25
23:00 1029 30.39 858 25.34 -0.5 31 78 -3.9 25
23:05 1029 30.39 858 25.34 -0.7 30.7 79 -4 24.8
23:10 1029 30.39 858 25.34 -0.9 30.3 79 -4.1 24.5
23:15 1029 30.39 858 25.34 -1.1 29.9 80 -4.1 24.6
23:20 1029 30.39 859 25.37 -1.3 29.7 81 -4.2 24.4
23:25 1029 30.39 859 25.37 -1.4 29.5 81 -4.3 24.3
23:30 1029 30.39 859 25.37 -1.6 29.2 82 -4.2 24.4
23:35 1029 30.39 859 25.37 -1.7 28.9 82 -4.4 24.1
23:40 1029 30.39 859 25.37 -1.7 28.9 82 -4.4 24.1
23:45 1029 30.39 858 25.34 -1.7 28.9 81 -4.5 23.8
23:50 1029 30.39 859 25.37 -1.9 28.6 81 -4.7 23.6
23:55 1029 30.39 859 25.37 -1.9 28.5 81 -4.7 23.5
24:00 1029 30.39 859 25.37 -2 28.4 81 -4.9 23.2